createdAt,value
2023-01-29T00:01:54.210Z,101149.53
2023-01-29T00:04:21.260Z,101152.78
2023-01-29T00:06:48.329Z,101142.50
2023-01-29T00:09:15.386Z,101149.00
2023-01-29T00:11:42.675Z,101153.34
2023-01-29T00:14:09.844Z,101153.06
2023-01-29T00:16:37.039Z,101155.22
2023-01-29T00:19:04.346Z,101160.38
2023-01-29T00:21:32.342Z,101162.50
2023-01-29T00:24:00.138Z,101159.00
2023-01-29T00:26:27.656Z,101166.84
2023-01-29T00:28:57.163Z,101161.72
2023-01-29T00:31:25.661Z,101165.78
2023-01-29T00:33:53.588Z,101164.44
2023-01-29T00:36:22.269Z,101167.41
2023-01-29T00:38:58.930Z,101176.59
2023-01-29T00:41:49.786Z,101176.06
2023-01-29T00:44:35.873Z,101181.75
2023-01-29T00:47:03.623Z,101179.28
2023-01-29T00:49:30.686Z,101184.19
2023-01-29T00:52:16.978Z,101183.88
2023-01-29T00:54:44.094Z,101184.09
2023-01-29T00:57:11.185Z,101184.38
2023-01-29T00:59:38.361Z,101189.53
2023-01-29T01:02:24.050Z,101188.19
2023-01-29T01:04:51.140Z,101182.50
2023-01-29T01:07:18.219Z,101192.22
2023-01-29T01:10:03.637Z,101172.72
2023-01-29T01:12:31.553Z,101178.13
2023-01-29T01:14:58.531Z,101173.78
2023-01-29T01:17:25.617Z,101180.56
2023-01-29T01:19:52.583Z,101181.34
2023-01-29T01:22:20.086Z,101192.16
2023-01-29T01:24:47.024Z,101187.81
2023-01-29T01:27:14.266Z,101184.03
2023-01-29T01:29:41.443Z,101184.84
2023-01-29T01:32:08.505Z,101186.22
2023-01-29T01:34:35.998Z,101187.03
2023-01-29T01:37:02.987Z,101185.69
2023-01-29T01:39:30.464Z,101193.25
2023-01-29T01:41:57.523Z,101192.44
2023-01-29T01:44:54.670Z,101192.38
2023-01-29T01:47:45.242Z,101199.13
2023-01-29T01:50:24.309Z,101200.78
2023-01-29T01:52:55.565Z,101197.84
2023-01-29T01:55:27.768Z,101189.44
2023-01-29T01:58:03.481Z,101194.31
2023-01-29T02:00:30.670Z,101198.91
2023-01-29T02:03:16.618Z,101200.53
2023-01-29T02:06:02.005Z,101197.31
2023-01-29T02:09:05.908Z,101204.34
2023-01-29T02:11:36.454Z,101210.03
2023-01-29T02:14:03.756Z,101211.66
2023-01-29T02:16:31.001Z,101207.09
2023-01-29T02:18:58.129Z,101213.59
2023-01-29T02:21:59.846Z,101201.13
2023-01-29T02:24:59.882Z,101201.69
2023-01-29T02:27:58.415Z,101202.72
2023-01-29T02:30:53.173Z,101206.72
2023-01-29T02:33:22.513Z,101206.16
2023-01-29T02:36:04.664Z,101201.78
2023-01-29T02:38:46.802Z,101208.78
2023-01-29T02:41:30.228Z,101207.66
2023-01-29T02:44:03.874Z,101223.88
2023-01-29T02:46:51.331Z,101226.53
2023-01-29T02:49:25.150Z,101237.31
2023-01-29T02:52:05.359Z,101231.34
2023-01-29T02:54:42.220Z,101247.63
2023-01-29T02:57:18.728Z,101254.19
2023-01-29T03:00:12.148Z,101239.41
2023-01-29T03:02:52.365Z,101240.25
2023-01-29T03:05:29.734Z,101241.59
2023-01-29T03:08:04.285Z,101249.47
2023-01-29T03:10:44.072Z,101242.72
2023-01-29T03:13:20.926Z,101247.91
2023-01-29T03:16:01.740Z,101253.31
2023-01-29T03:18:46.998Z,101259.84
2023-01-29T03:21:43.762Z,101255.53
2023-01-29T03:24:32.456Z,101260.44
2023-01-29T03:27:23.931Z,101256.63
2023-01-29T03:30:12.585Z,101264.78
2023-01-29T03:33:01.176Z,101251.75
2023-01-29T03:35:36.746Z,101260.44
2023-01-29T03:38:07.688Z,101263.66
2023-01-29T03:40:56.713Z,101260.97
2023-01-29T03:43:37.414Z,101250.06
2023-01-29T03:46:19.197Z,101258.13
2023-01-29T03:49:08.490Z,101250.47
2023-01-29T03:51:51.700Z,101247.47
2023-01-29T03:54:30.002Z,101244.69
2023-01-29T03:57:03.270Z,101249.25
2023-01-29T03:59:59.547Z,101253.31
2023-01-29T04:02:49.420Z,101247.34
2023-01-29T04:05:21.266Z,101250.56
2023-01-29T04:08:11.239Z,101259.75
2023-01-29T04:10:41.618Z,101264.06
2023-01-29T04:13:14.349Z,101271.66
2023-01-29T04:15:49.832Z,101263.59
2023-01-29T04:18:19.401Z,101263.38
2023-01-29T04:21:07.522Z,101272.63
2023-01-29T04:23:34.709Z,101275.38
2023-01-29T04:26:21.919Z,101273.53
2023-01-29T04:29:08.790Z,101266.50
2023-01-29T04:31:48.034Z,101265.72
2023-01-29T04:34:57.550Z,101272.25
2023-01-29T04:37:40.374Z,101266.84
2023-01-29T04:40:31.919Z,101262.00
2023-01-29T04:43:37.136Z,101258.16
2023-01-29T04:46:16.262Z,101259.25
2023-01-29T04:48:58.553Z,101279.28
2023-01-29T04:51:43.312Z,101278.19
2023-01-29T04:54:22.060Z,101273.53
2023-01-29T04:57:16.441Z,101291.94
2023-01-29T04:59:48.614Z,101279.22
2023-01-29T05:02:15.634Z,101283.31
2023-01-29T05:04:44.973Z,101295.47
2023-01-29T05:07:15.267Z,101292.47
2023-01-29T05:09:45.578Z,101292.47
2023-01-29T05:12:17.937Z,101293.28
2023-01-29T05:14:47.783Z,101292.22
2023-01-29T05:17:18.411Z,101296.03
2023-01-29T05:19:46.509Z,101311.75
2023-01-29T05:22:17.952Z,101305.25
2023-01-29T05:24:46.471Z,101314.47
2023-01-29T05:27:38.915Z,101311.50
2023-01-29T05:30:07.165Z,101309.09
2023-01-29T05:32:34.132Z,101308.28
2023-01-29T05:35:01.356Z,101310.72
2023-01-29T05:37:28.430Z,101308.00
2023-01-29T05:39:55.378Z,101298.28
2023-01-29T05:42:22.515Z,101304.78
2023-01-29T05:44:49.595Z,101303.13
2023-01-29T05:47:20.955Z,101303.41
2023-01-29T05:49:48.060Z,101309.06
2023-01-29T05:52:15.024Z,101315.31
2023-01-29T05:54:42.035Z,101315.31
2023-01-29T05:57:09.025Z,101321.53
2023-01-29T05:59:36.140Z,101325.84
2023-01-29T06:02:03.215Z,101326.94
2023-01-29T06:04:30.357Z,101326.66
2023-01-29T06:06:57.433Z,101332.31
2023-01-29T06:09:24.508Z,101331.50
2023-01-29T06:11:51.613Z,101331.50
2023-01-29T06:14:18.549Z,101341.22
2023-01-29T06:16:45.649Z,101342.03
2023-01-29T06:19:12.604Z,101352.56
2023-01-29T06:21:39.653Z,101345.81
2023-01-29T06:24:07.014Z,101354.97
2023-01-29T06:26:34.163Z,101350.66
2023-01-29T06:29:01.122Z,101359.34
2023-01-29T06:31:38.464Z,101357.44
2023-01-29T06:34:07.567Z,101370.19
2023-01-29T06:36:35.053Z,101370.75
2023-01-29T06:39:02.029Z,101381.84
2023-01-29T06:41:29.225Z,101380.00
2023-01-29T06:43:56.282Z,101374.59
2023-01-29T06:46:23.379Z,101381.69
2023-01-29T06:48:50.372Z,101379.56
2023-01-29T06:51:17.512Z,101394.22
2023-01-29T06:53:46.221Z,101396.16
2023-01-29T06:56:13.767Z,101407.28
2023-01-29T06:58:40.710Z,101407.59
2023-01-29T07:01:17.356Z,101411.41
2023-01-29T07:03:52.467Z,101423.09
2023-01-29T07:06:19.770Z,101422.59
2023-01-29T07:08:47.048Z,101424.81
2023-01-29T07:11:14.253Z,101425.41
2023-01-29T07:13:41.302Z,101427.06
2023-01-29T07:16:08.367Z,101420.56
2023-01-29T07:18:35.712Z,101425.72
2023-01-29T07:21:08.608Z,101435.75
2023-01-29T07:23:35.920Z,101431.69
2023-01-29T07:26:04.929Z,101435.75
2023-01-29T07:28:32.407Z,101444.97
2023-01-29T07:31:00.046Z,101444.19
2023-01-29T07:33:27.232Z,101443.13
2023-01-29T07:35:54.324Z,101439.88
2023-01-29T07:38:21.502Z,101457.25
2023-01-29T07:40:49.196Z,101462.38
2023-01-29T07:43:17.073Z,101463.50
2023-01-29T07:45:44.192Z,101464.06
2023-01-29T07:48:13.090Z,101470.03
2023-01-29T07:50:40.711Z,101471.94
2023-01-29T07:53:12.509Z,101479.06
2023-01-29T07:55:39.664Z,101475.84
2023-01-29T07:58:06.994Z,101479.13
2023-01-29T08:00:34.122Z,101476.16
2023-01-29T08:03:06.707Z,101472.91
2023-01-29T08:05:34.183Z,101477.78
2023-01-29T08:08:07.029Z,101479.94
2023-01-29T08:10:39.245Z,101482.09
2023-01-29T08:13:08.416Z,101484.56
2023-01-29T08:15:38.057Z,101495.16
2023-01-29T08:18:06.889Z,101488.34
2023-01-29T08:20:33.854Z,101474.72
2023-01-29T08:23:09.077Z,101482.28
2023-01-29T08:25:36.844Z,101493.69
2023-01-29T08:28:04.847Z,101486.84
2023-01-29T08:30:34.577Z,101491.97
2023-01-29T08:33:03.089Z,101492.22
2023-01-29T08:35:30.481Z,101485.94
2023-01-29T08:38:00.005Z,101482.88
2023-01-29T08:40:28.833Z,101496.69
2023-01-29T08:43:09.210Z,101496.31
2023-01-29T08:45:42.187Z,101500.94
2023-01-29T08:48:09.921Z,101501.91
2023-01-29T08:50:37.664Z,101505.97
2023-01-29T08:53:10.061Z,101502.31
2023-01-29T08:55:38.768Z,101505.09
2023-01-29T08:58:10.542Z,101510.94
2023-01-29T09:00:37.664Z,101515.50
2023-01-29T09:03:05.245Z,101516.47
2023-01-29T09:05:32.778Z,101507.38
2023-01-29T09:07:59.846Z,101516.25
2023-01-29T09:10:27.321Z,101521.84
2023-01-29T09:12:54.340Z,101524.66
2023-01-29T09:15:21.439Z,101526.78
2023-01-29T09:17:51.341Z,101531.69
2023-01-29T09:20:19.751Z,101527.63
2023-01-29T09:22:47.456Z,101522.13
2023-01-29T09:25:15.155Z,101528.25
2023-01-29T09:27:42.514Z,101531.41
2023-01-29T09:30:10.197Z,101528.69
2023-01-29T09:32:52.603Z,101535.13
2023-01-29T09:35:20.905Z,101532.63
2023-01-29T09:37:49.274Z,101537.75
2023-01-29T09:40:35.839Z,101527.38
2023-01-29T09:43:23.817Z,101525.94
2023-01-29T09:45:58.644Z,101530.72
2023-01-29T09:48:29.272Z,101526.88
2023-01-29T09:51:00.694Z,101527.69
2023-01-29T09:53:41.235Z,101527.19
2023-01-29T09:56:11.156Z,101531.53
2023-01-29T09:58:41.876Z,101530.06
2023-01-29T10:01:16.147Z,101522.56
2023-01-29T10:03:55.347Z,101528.38
2023-01-29T10:06:53.518Z,101526.16
2023-01-29T10:09:23.258Z,101521.81
2023-01-29T10:12:22.776Z,101511.03
2023-01-29T10:15:01.598Z,101507.00
2023-01-29T10:18:04.267Z,101508.91
2023-01-29T10:20:40.364Z,101501.59
2023-01-29T10:23:17.515Z,101497.72
2023-01-29T10:25:47.582Z,101497.28
2023-01-29T10:28:46.202Z,101494.75
2023-01-29T10:31:22.674Z,101493.16
2023-01-29T10:34:01.920Z,101492.84
2023-01-29T10:36:49.018Z,101487.09
2023-01-29T10:39:25.894Z,101482.84
2023-01-29T10:42:01.848Z,101493.66
2023-01-29T10:44:52.243Z,101487.91
2023-01-29T10:47:32.483Z,101479.53
2023-01-29T10:50:17.059Z,101480.13
2023-01-29T10:52:51.291Z,101480.47
2023-01-29T10:55:54.946Z,101469.56
2023-01-29T10:58:36.909Z,101459.66
2023-01-29T11:01:04.598Z,101462.78
2023-01-29T11:03:34.198Z,101462.41
2023-01-29T11:06:24.355Z,101445.28
2023-01-29T11:08:56.943Z,101449.63
2023-01-29T11:11:33.691Z,101442.81
2023-01-29T11:14:07.319Z,101424.81
2023-01-29T11:16:43.361Z,101438.16
2023-01-29T11:19:11.391Z,101438.16
2023-01-29T11:22:01.946Z,101448.63
2023-01-29T11:24:29.193Z,101444.16
2023-01-29T11:26:59.217Z,101436.19
2023-01-29T11:29:45.105Z,101434.28
2023-01-29T11:32:19.659Z,101427.94
2023-01-29T11:35:05.297Z,101444.09
2023-01-29T11:37:40.625Z,101439.81
2023-01-29T11:40:20.064Z,101437.09
2023-01-29T11:42:47.626Z,101440.00
2023-01-29T11:45:20.633Z,101439.28
2023-01-29T11:47:53.977Z,101436.69
2023-01-29T11:50:25.234Z,101431.50
2023-01-29T11:52:52.982Z,101437.41
2023-01-29T11:55:23.876Z,101435.34
2023-01-29T11:58:02.386Z,101431.31
2023-01-29T12:00:33.315Z,101424.75
2023-01-29T12:03:11.451Z,101426.94
2023-01-29T12:05:39.776Z,101431.59
2023-01-29T12:08:17.364Z,101428.75
2023-01-29T12:10:44.829Z,101420.84
2023-01-29T12:13:20.154Z,101427.34
2023-01-29T12:15:49.052Z,101410.31
2023-01-29T12:18:18.761Z,101413.66
2023-01-29T12:20:55.351Z,101420.34
2023-01-29T12:23:46.269Z,101415.16
2023-01-29T12:26:16.654Z,101403.13
2023-01-29T12:28:55.369Z,101412.53
2023-01-29T12:31:26.794Z,101406.03
2023-01-29T12:33:59.535Z,101408.09
2023-01-29T12:36:38.878Z,101400.88
2023-01-29T12:39:06.307Z,101396.94
2023-01-29T12:41:50.994Z,101400.41
2023-01-29T12:44:26.360Z,101379.53
2023-01-29T12:46:57.873Z,101392.28
2023-01-29T12:49:38.331Z,101394.53
2023-01-29T12:52:15.242Z,101393.00
2023-01-29T12:55:03.757Z,101392.31
2023-01-29T12:57:50.329Z,101392.31
2023-01-29T13:00:23.130Z,101388.50
2023-01-29T13:03:20.689Z,101388.84
2023-01-29T13:05:53.076Z,101385.78
2023-01-29T13:08:20.175Z,101381.81
2023-01-29T13:10:51.247Z,101378.75
2023-01-29T13:13:36.883Z,101371.94
2023-01-29T13:16:07.773Z,101380.81
2023-01-29T13:18:49.212Z,101376.13
2023-01-29T13:21:23.969Z,101377.00
2023-01-29T13:23:59.343Z,101377.88
2023-01-29T13:26:26.982Z,101378.31
2023-01-29T13:28:54.320Z,101382.28
2023-01-29T13:31:21.399Z,101380.00
2023-01-29T13:34:14.432Z,101382.41
2023-01-29T13:36:47.144Z,101383.00
2023-01-29T13:39:29.034Z,101376.78
2023-01-29T13:41:58.452Z,101390.56
2023-01-29T13:44:38.059Z,101388.97
2023-01-29T13:47:07.097Z,101383.78
2023-01-29T13:49:40.861Z,101397.25
2023-01-29T13:52:26.689Z,101390.16
2023-01-29T13:55:03.212Z,101389.00
2023-01-29T13:57:56.927Z,101391.84
2023-01-29T14:00:31.200Z,101384.56
2023-01-29T14:03:01.330Z,101374.38
2023-01-29T14:05:31.224Z,101377.41
2023-01-29T14:07:59.733Z,101382.88
2023-01-29T14:10:29.155Z,101378.38
2023-01-29T14:13:05.162Z,101378.56
2023-01-29T14:15:37.040Z,101381.09
2023-01-29T14:18:26.444Z,101377.91
2023-01-29T14:21:07.226Z,101386.91
2023-01-29T14:23:42.538Z,101393.81
2023-01-29T14:26:38.786Z,101387.91
2023-01-29T14:29:33.822Z,101388.25
2023-01-29T14:32:07.965Z,101394.53
2023-01-29T14:34:36.517Z,101397.34
2023-01-29T14:37:15.695Z,101397.38
2023-01-29T14:39:45.353Z,101396.38
2023-01-29T14:42:24.108Z,101407.53
2023-01-29T14:45:09.020Z,101403.47
2023-01-29T14:47:38.980Z,101404.28
2023-01-29T14:50:34.901Z,101408.09
2023-01-29T14:53:11.166Z,101404.03
2023-01-29T14:55:40.885Z,101410.81
2023-01-29T14:58:15.186Z,101408.09
2023-01-29T15:00:46.105Z,101414.34
2023-01-29T15:03:41.468Z,101411.28
2023-01-29T15:06:15.272Z,101413.34
2023-01-29T15:08:50.925Z,101408.00
2023-01-29T15:11:33.944Z,101409.50
2023-01-29T15:14:16.994Z,101409.75
2023-01-29T15:17:07.548Z,101412.34
2023-01-29T15:19:46.156Z,101416.31
2023-01-29T15:22:17.655Z,101422.09
2023-01-29T15:24:46.972Z,101420.75
2023-01-29T15:27:20.498Z,101422.44
2023-01-29T15:29:59.992Z,101420.56
2023-01-29T15:32:32.348Z,101424.44
2023-01-29T15:35:00.825Z,101425.50
2023-01-29T15:37:31.395Z,101426.38
2023-01-29T15:39:59.756Z,101428.53
2023-01-29T15:42:29.986Z,101433.72
2023-01-29T15:44:57.454Z,101429.59
2023-01-29T15:47:31.095Z,101438.88
2023-01-29T15:49:58.995Z,101428.53
2023-01-29T15:52:31.434Z,101441.13
2023-01-29T15:55:04.458Z,101438.44
2023-01-29T15:57:37.746Z,101440.41
2023-01-29T16:00:07.670Z,101436.91
2023-01-29T16:02:42.158Z,101437.78
2023-01-29T16:05:19.052Z,101438.34
2023-01-29T16:07:47.548Z,101436.72
2023-01-29T16:10:24.420Z,101435.69
2023-01-29T16:12:53.213Z,101447.41
2023-01-29T16:15:53.847Z,101453.44
2023-01-29T16:18:24.448Z,101451.28
2023-01-29T16:20:54.324Z,101449.13
2023-01-29T16:23:30.690Z,101444.25
2023-01-29T16:26:03.777Z,101454.59
2023-01-29T16:28:31.096Z,101451.63
2023-01-29T16:31:01.926Z,101452.47
2023-01-29T16:33:36.418Z,101453.84
2023-01-29T16:36:11.721Z,101457.13
2023-01-29T16:38:43.380Z,101460.41
2023-01-29T16:41:24.071Z,101466.41
2023-01-29T16:43:58.500Z,101469.66
2023-01-29T16:46:45.580Z,101468.06
2023-01-29T16:49:31.579Z,101465.63
2023-01-29T16:52:28.131Z,101472.69
2023-01-29T16:55:35.692Z,101480.81
2023-01-29T16:58:16.235Z,101484.06
2023-01-29T17:00:46.664Z,101481.91
2023-01-29T17:03:16.323Z,101488.41
2023-01-29T17:05:43.910Z,101497.66
2023-01-29T17:08:35.747Z,101498.47
2023-01-29T17:11:03.472Z,101502.81
2023-01-29T17:13:35.132Z,101499.53
2023-01-29T17:16:14.247Z,101507.69
2023-01-29T17:18:41.525Z,101508.75
2023-01-29T17:21:08.714Z,101511.72
2023-01-29T17:23:36.210Z,101509.81
2023-01-29T17:26:03.395Z,101516.06
2023-01-29T17:28:31.273Z,101511.41
2023-01-29T17:31:06.207Z,101517.66
2023-01-29T17:33:37.498Z,101522.31
2023-01-29T17:36:05.258Z,101523.94
2023-01-29T17:38:32.972Z,101533.19
2023-01-29T17:41:00.224Z,101532.38
2023-01-29T17:43:27.286Z,101536.19
2023-01-29T17:45:54.810Z,101525.56
2023-01-29T17:48:27.850Z,101529.13
2023-01-29T17:51:02.425Z,101529.41
2023-01-29T17:53:44.369Z,101525.88
2023-01-29T17:56:27.633Z,101531.03
2023-01-29T17:58:54.900Z,101533.75
2023-01-29T18:01:22.115Z,101534.03
2023-01-29T18:03:49.305Z,101540.56
2023-01-29T18:06:26.389Z,101538.13
2023-01-29T18:08:53.613Z,101534.59
2023-01-29T18:11:20.603Z,101538.91
2023-01-29T18:13:49.110Z,101539.72
2023-01-29T18:16:18.736Z,101537.81
2023-01-29T18:18:46.401Z,101540.28
2023-01-29T18:21:13.683Z,101551.16
2023-01-29T18:23:41.163Z,101550.31
2023-01-29T18:26:12.035Z,101540.03
2023-01-29T18:28:39.397Z,101547.34
2023-01-29T18:31:06.803Z,101544.88
2023-01-29T18:33:35.580Z,101547.09
2023-01-29T18:36:05.091Z,101548.19
2023-01-29T18:38:33.544Z,101555.25
2023-01-29T18:41:10.725Z,101556.66
2023-01-29T18:43:40.615Z,101555.56
2023-01-29T18:46:08.333Z,101554.75
2023-01-29T18:48:35.688Z,101547.44
2023-01-29T18:51:02.828Z,101564.03
2023-01-29T18:53:30.047Z,101562.13
2023-01-29T18:56:06.037Z,101562.97
2023-01-29T18:58:37.063Z,101566.25
2023-01-29T19:01:09.811Z,101560.00
2023-01-29T19:03:39.225Z,101568.97
2023-01-29T19:06:09.222Z,101569.81
2023-01-29T19:08:36.771Z,101573.84
2023-01-29T19:11:08.277Z,101573.84
2023-01-29T19:13:36.888Z,101579.03
2023-01-29T19:16:08.074Z,101579.03
2023-01-29T19:18:35.574Z,101583.13
2023-01-29T19:21:10.833Z,101589.66
2023-01-29T19:23:38.768Z,101592.63
2023-01-29T19:26:06.854Z,101589.09
2023-01-29T19:28:34.645Z,101586.13
2023-01-29T19:31:02.073Z,101590.47
2023-01-29T19:33:29.715Z,101585.28
2023-01-29T19:35:58.178Z,101589.09
2023-01-29T19:38:25.974Z,101589.66
2023-01-29T19:40:53.236Z,101592.66
2023-01-29T19:43:20.700Z,101590.50
2023-01-29T19:45:53.798Z,101606.00
2023-01-29T19:48:21.971Z,101598.09
2023-01-29T19:50:56.692Z,101603.53
2023-01-29T19:53:25.104Z,101604.06
2023-01-29T19:56:00.884Z,101608.16
2023-01-29T19:58:29.386Z,101607.06
2023-01-29T20:01:02.362Z,101609.53
2023-01-29T20:03:29.933Z,101615.00
2023-01-29T20:06:03.303Z,101612.81
2023-01-29T20:08:31.702Z,101610.63
2023-01-29T20:10:59.393Z,101615.25
2023-01-29T20:13:27.062Z,101619.84
2023-01-29T20:15:55.460Z,101618.53
2023-01-29T20:18:22.840Z,101622.03
2023-01-29T20:20:51.133Z,101620.16
2023-01-29T20:23:31.732Z,101615.50
2023-01-29T20:26:05.577Z,101618.75
2023-01-29T20:28:33.676Z,101611.41
2023-01-29T20:31:03.365Z,101617.38
2023-01-29T20:33:31.402Z,101609.22
2023-01-29T20:36:01.709Z,101616.28
2023-01-29T20:38:31.963Z,101620.88
2023-01-29T20:41:17.953Z,101619.00
2023-01-29T20:43:47.709Z,101615.44
2023-01-29T20:46:15.417Z,101607.28
2023-01-29T20:48:43.670Z,101620.03
2023-01-29T20:51:15.672Z,101623.81
2023-01-29T20:53:48.587Z,101627.34
2023-01-29T20:56:17.817Z,101628.16
2023-01-29T20:58:47.060Z,101629.75
2023-01-29T21:01:19.818Z,101626.22
2023-01-29T21:03:48.038Z,101623.75
2023-01-29T21:06:16.245Z,101627.00
2023-01-29T21:08:43.656Z,101628.06
2023-01-29T21:11:11.655Z,101632.38
2023-01-29T21:13:39.105Z,101634.25
2023-01-29T21:16:06.739Z,101632.38
2023-01-29T21:18:34.123Z,101637.81
2023-01-29T21:21:01.443Z,101639.44
2023-01-29T21:23:28.745Z,101641.59
2023-01-29T21:26:06.342Z,101636.44
2023-01-29T21:28:35.060Z,101630.44
2023-01-29T21:31:06.632Z,101645.09
2023-01-29T21:33:35.360Z,101639.41
2023-01-29T21:36:03.032Z,101644.78
2023-01-29T21:38:30.615Z,101631.50
2023-01-29T21:41:06.797Z,101644.78
2023-01-29T21:43:34.330Z,101643.66
2023-01-29T21:46:11.559Z,101645.00
2023-01-29T21:48:40.555Z,101643.06
2023-01-29T21:51:08.107Z,101648.75
2023-01-29T21:53:37.158Z,101634.41
2023-01-29T21:56:05.923Z,101643.06
2023-01-29T21:58:33.714Z,101639.81
2023-01-29T22:01:36.342Z,101641.72
2023-01-29T22:03:48.186Z,101641.44
2023-01-29T22:06:15.723Z,101642.78
2023-01-29T22:08:43.108Z,101637.34
2023-01-29T22:11:10.900Z,101642.25
2023-01-29T22:13:38.251Z,101648.75
2023-01-29T22:16:06.167Z,101643.59
2023-01-29T22:18:33.935Z,101637.06
2023-01-29T22:21:03.012Z,101636.78
2023-01-29T22:23:31.439Z,101635.16
2023-01-29T22:26:06.478Z,101631.88
2023-01-29T22:28:33.860Z,101634.28
2023-01-29T22:31:02.690Z,101635.09
2023-01-29T22:33:30.197Z,101632.09
2023-01-29T22:35:57.708Z,101632.66
2023-01-29T22:38:25.153Z,101625.06
2023-01-29T22:40:53.752Z,101636.44
2023-01-29T22:43:21.573Z,101626.09
2023-01-29T22:45:48.827Z,101632.84
2023-01-29T22:48:16.027Z,101635.31
2023-01-29T22:50:54.032Z,101629.59
2023-01-29T22:53:21.337Z,101628.25
2023-01-29T22:55:55.684Z,101626.63
2023-01-29T22:58:22.846Z,101627.94
2023-01-29T23:00:51.344Z,101620.09
2023-01-29T23:03:18.716Z,101625.50
2023-01-29T23:06:08.532Z,101621.72
2023-01-29T23:08:35.906Z,101619.56
2023-01-29T23:11:15.991Z,101621.19
2023-01-29T23:13:50.945Z,101624.47
2023-01-29T23:16:19.605Z,101620.16
2023-01-29T23:18:50.784Z,101616.88
2023-01-29T23:21:18.676Z,101607.91
2023-01-29T23:23:46.015Z,101615.50
2023-01-29T23:26:32.596Z,101615.25
2023-01-29T23:29:00.089Z,101612.50
2023-01-29T23:31:27.170Z,101615.47
2023-01-29T23:33:54.371Z,101613.84
2023-01-29T23:36:21.642Z,101609.50
2023-01-29T23:38:48.762Z,101611.16
2023-01-29T23:41:15.767Z,101611.66
2023-01-29T23:43:42.751Z,101607.53
2023-01-29T23:46:09.854Z,101605.84
2023-01-29T23:48:37.052Z,101610.44
2023-01-29T23:51:04.233Z,101610.16
2023-01-29T23:53:31.207Z,101611.19
2023-01-29T23:55:59.731Z,101619.03
2023-01-29T23:58:28.417Z,101622.50
